sensor_id;sensor_type;location;lat;lon;timestamp;P1;durP1;ratioP1;P2;durP2;ratioP2
6852;SDS011;3465;42.144;24.722;2023-09-30T00:00:58;10.85;;;4.00;;
6852;SDS011;3465;42.144;24.722;2023-09-30T00:03:23;6.28;;;4.32;;
6852;SDS011;3465;42.144;24.722;2023-09-30T00:05:49;10.57;;;4.22;;
6852;SDS011;3465;42.144;24.722;2023-09-30T00:08:15;10.93;;;4.18;;
6852;SDS011;3465;42.144;24.722;2023-09-30T00:10:40;7.47;;;4.13;;
6852;SDS011;3465;42.144;24.722;2023-09-30T00:13:06;13.50;;;4.35;;
6852;SDS011;3465;42.144;24.722;2023-09-30T00:15:32;10.18;;;4.07;;
6852;SDS011;3465;42.144;24.722;2023-09-30T00:17:58;11.07;;;4.30;;
6852;SDS011;3465;42.144;24.722;2023-09-30T00:20:23;11.43;;;4.25;;
6852;SDS011;3465;42.144;24.722;2023-09-30T00:22:49;8.60;;;3.70;;
6852;SDS011;3465;42.144;24.722;2023-09-30T00:25:15;11.07;;;4.35;;
6852;SDS011;3465;42.144;24.722;2023-09-30T00:27:41;7.75;;;4.15;;
6852;SDS011;3465;42.144;24.722;2023-09-30T00:30:06;10.55;;;4.00;;
6852;SDS011;3465;42.144;24.722;2023-09-30T00:32:32;11.45;;;4.47;;
6852;SDS011;3465;42.144;24.722;2023-09-30T00:34:58;11.00;;;4.30;;
6852;SDS011;3465;42.144;24.722;2023-09-30T00:37:26;9.70;;;4.30;;
6852;SDS011;3465;42.144;24.722;2023-09-30T00:39:52;12.55;;;4.60;;
6852;SDS011;3465;42.144;24.722;2023-09-30T00:42:17;12.02;;;4.47;;
6852;SDS011;3465;42.144;24.722;2023-09-30T00:44:45;8.95;;;4.35;;
6852;SDS011;3465;42.144;24.722;2023-09-30T00:47:11;14.13;;;4.45;;
6852;SDS011;3465;42.144;24.722;2023-09-30T00:49:36;18.75;;;4.57;;
6852;SDS011;3465;42.144;24.722;2023-09-30T00:52:03;10.55;;;4.10;;
6852;SDS011;3465;42.144;24.722;2023-09-30T00:54:31;8.00;;;4.53;;
6852;SDS011;3465;42.144;24.722;2023-09-30T00:56:57;12.80;;;5.07;;
6852;SDS011;3465;42.144;24.722;2023-09-30T00:59:22;7.70;;;4.13;;
6852;SDS011;3465;42.144;24.722;2023-09-30T01:01:51;10.15;;;3.97;;
6852;SDS011;3465;42.144;24.722;2023-09-30T01:04:22;8.77;;;4.43;;
6852;SDS011;3465;42.144;24.722;2023-09-30T01:06:48;11.27;;;4.68;;
6852;SDS011;3465;42.144;24.722;2023-09-30T01:09:14;15.00;;;4.80;;
6852;SDS011;3465;42.144;24.722;2023-09-30T01:11:39;10.85;;;5.15;;
6852;SDS011;3465;42.144;24.722;2023-09-30T01:14:29;10.02;;;4.20;;
6852;SDS011;3465;42.144;24.722;2023-09-30T01:16:56;13.93;;;5.00;;
6852;SDS011;3465;42.144;24.722;2023-09-30T01:19:22;12.43;;;4.50;;
6852;SDS011;3465;42.144;24.722;2023-09-30T01:21:57;14.70;;;4.68;;
6852;SDS011;3465;42.144;24.722;2023-09-30T01:24:28;8.98;;;4.38;;
6852;SDS011;3465;42.144;24.722;2023-09-30T01:26:54;8.15;;;4.18;;
6852;SDS011;3465;42.144;24.722;2023-09-30T01:29:20;9.35;;;4.28;;
6852;SDS011;3465;42.144;24.722;2023-09-30T01:31:45;15.70;;;4.63;;
6852;SDS011;3465;42.144;24.722;2023-09-30T01:34:15;11.70;;;4.53;;
6852;SDS011;3465;42.144;24.722;2023-09-30T01:36:41;11.15;;;4.45;;
6852;SDS011;3465;42.144;24.722;2023-09-30T01:39:08;8.15;;;4.10;;
6852;SDS011;3465;42.144;24.722;2023-09-30T01:41:35;15.57;;;4.70;;
6852;SDS011;3465;42.144;24.722;2023-09-30T01:44:05;15.63;;;4.68;;
6852;SDS011;3465;42.144;24.722;2023-09-30T01:46:31;15.93;;;4.55;;
6852;SDS011;3465;42.144;24.722;2023-09-30T01:48:56;9.35;;;3.70;;
6852;SDS011;3465;42.144;24.722;2023-09-30T01:51:21;11.90;;;4.78;;
6852;SDS011;3465;42.144;24.722;2023-09-30T01:53:47;14.18;;;4.60;;
6852;SDS011;3465;42.144;24.722;2023-09-30T01:56:13;8.18;;;4.45;;
6852;SDS011;3465;42.144;24.722;2023-09-30T01:58:39;8.80;;;4.53;;
6852;SDS011;3465;42.144;24.722;2023-09-30T02:01:04;12.75;;;4.30;;
6852;SDS011;3465;42.144;24.722;2023-09-30T02:03:30;11.35;;;4.75;;
6852;SDS011;3465;42.144;24.722;2023-09-30T02:05:56;7.40;;;4.25;;
6852;SDS011;3465;42.144;24.722;2023-09-30T02:08:23;10.23;;;4.80;;
6852;SDS011;3465;42.144;24.722;2023-09-30T02:10:48;9.07;;;4.20;;
6852;SDS011;3465;42.144;24.722;2023-09-30T02:13:13;14.10;;;4.88;;
6852;SDS011;3465;42.144;24.722;2023-09-30T02:15:40;10.88;;;4.53;;
6852;SDS011;3465;42.144;24.722;2023-09-30T02:18:08;14.93;;;4.43;;
6852;SDS011;3465;42.144;24.722;2023-09-30T02:20:34;10.45;;;4.38;;
6852;SDS011;3465;42.144;24.722;2023-09-30T02:23:08;11.10;;;4.60;;
6852;SDS011;3465;42.144;24.722;2023-09-30T02:25:36;6.90;;;4.22;;
6852;SDS011;3465;42.144;24.722;2023-09-30T02:28:02;12.52;;;4.20;;
6852;SDS011;3465;42.144;24.722;2023-09-30T02:30:28;13.02;;;5.45;;
6852;SDS011;3465;42.144;24.722;2023-09-30T02:32:53;15.82;;;5.13;;
6852;SDS011;3465;42.144;24.722;2023-09-30T02:35:21;17.33;;;5.10;;
6852;SDS011;3465;42.144;24.722;2023-09-30T02:37:46;17.95;;;5.22;;
6852;SDS011;3465;42.144;24.722;2023-09-30T02:40:12;22.48;;;5.95;;
6852;SDS011;3465;42.144;24.722;2023-09-30T02:42:40;17.20;;;5.15;;
6852;SDS011;3465;42.144;24.722;2023-09-30T02:45:06;13.13;;;4.72;;
6852;SDS011;3465;42.144;24.722;2023-09-30T02:47:33;9.95;;;4.82;;
6852;SDS011;3465;42.144;24.722;2023-09-30T02:49:59;10.30;;;5.00;;
6852;SDS011;3465;42.144;24.722;2023-09-30T02:52:25;8.85;;;4.72;;
6852;SDS011;3465;42.144;24.722;2023-09-30T02:54:50;12.23;;;4.47;;
6852;SDS011;3465;42.144;24.722;2023-09-30T02:57:16;9.15;;;4.60;;
6852;SDS011;3465;42.144;24.722;2023-09-30T02:59:43;15.17;;;5.10;;
6852;SDS011;3465;42.144;24.722;2023-09-30T03:02:09;15.33;;;5.10;;
6852;SDS011;3465;42.144;24.722;2023-09-30T03:04:36;20.47;;;5.77;;
6852;SDS011;3465;42.144;24.722;2023-09-30T03:07:02;9.93;;;4.20;;
6852;SDS011;3465;42.144;24.722;2023-09-30T03:09:27;11.75;;;4.53;;
6852;SDS011;3465;42.144;24.722;2023-09-30T03:11:53;12.20;;;4.75;;
6852;SDS011;3465;42.144;24.722;2023-09-30T03:14:21;15.23;;;5.10;;
6852;SDS011;3465;42.144;24.722;2023-09-30T03:16:47;14.33;;;5.30;;
6852;SDS011;3465;42.144;24.722;2023-09-30T03:19:13;8.73;;;4.47;;
6852;SDS011;3465;42.144;24.722;2023-09-30T03:21:41;12.07;;;4.53;;
6852;SDS011;3465;42.144;24.722;2023-09-30T03:24:07;9.50;;;4.50;;
6852;SDS011;3465;42.144;24.722;2023-09-30T03:26:33;12.93;;;4.73;;
6852;SDS011;3465;42.144;24.722;2023-09-30T03:28:59;16.58;;;4.90;;
6852;SDS011;3465;42.144;24.722;2023-09-30T03:31:25;12.10;;;4.77;;
6852;SDS011;3465;42.144;24.722;2023-09-30T03:33:51;7.60;;;4.50;;
6852;SDS011;3465;42.144;24.722;2023-09-30T03:36:21;14.88;;;4.57;;
6852;SDS011;3465;42.144;24.722;2023-09-30T03:38:51;14.87;;;4.73;;
6852;SDS011;3465;42.144;24.722;2023-09-30T03:41:20;16.13;;;4.87;;
6852;SDS011;3465;42.144;24.722;2023-09-30T03:43:46;13.47;;;4.90;;
6852;SDS011;3465;42.144;24.722;2023-09-30T03:46:12;12.50;;;4.77;;
6852;SDS011;3465;42.144;24.722;2023-09-30T03:48:38;13.20;;;4.90;;
6852;SDS011;3465;42.144;24.722;2023-09-30T03:53:43;20.53;;;5.70;;
6852;SDS011;3465;42.144;24.722;2023-09-30T03:56:09;12.93;;;5.00;;
6852;SDS011;3465;42.144;24.722;2023-09-30T03:58:39;13.10;;;4.80;;
6852;SDS011;3465;42.144;24.722;2023-09-30T04:01:08;13.07;;;5.10;;
6852;SDS011;3465;42.144;24.722;2023-09-30T04:03:38;15.53;;;5.47;;
6852;SDS011;3465;42.144;24.722;2023-09-30T04:06:04;16.40;;;5.30;;
6852;SDS011;3465;42.144;24.722;2023-09-30T04:08:34;14.17;;;5.43;;
6852;SDS011;3465;42.144;24.722;2023-09-30T04:11:00;11.23;;;4.90;;
6852;SDS011;3465;42.144;24.722;2023-09-30T04:13:26;11.90;;;5.50;;
6852;SDS011;3465;42.144;24.722;2023-09-30T04:15:54;12.93;;;5.43;;
6852;SDS011;3465;42.144;24.722;2023-09-30T04:18:19;23.47;;;6.17;;
6852;SDS011;3465;42.144;24.722;2023-09-30T04:20:46;16.77;;;5.80;;
6852;SDS011;3465;42.144;24.722;2023-09-30T04:23:12;19.53;;;5.50;;
6852;SDS011;3465;42.144;24.722;2023-09-30T04:25:38;14.30;;;4.67;;
6852;SDS011;3465;42.144;24.722;2023-09-30T04:28:05;14.63;;;4.80;;
6852;SDS011;3465;42.144;24.722;2023-09-30T04:30:31;21.30;;;6.20;;
6852;SDS011;3465;42.144;24.722;2023-09-30T04:32:58;16.03;;;5.03;;
6852;SDS011;3465;42.144;24.722;2023-09-30T04:35:24;15.23;;;4.63;;
6852;SDS011;3465;42.144;24.722;2023-09-30T04:37:50;18.03;;;4.93;;
6852;SDS011;3465;42.144;24.722;2023-09-30T04:40:16;16.13;;;5.20;;
6852;SDS011;3465;42.144;24.722;2023-09-30T04:42:45;19.20;;;5.47;;
6852;SDS011;3465;42.144;24.722;2023-09-30T04:45:12;12.17;;;5.30;;
6852;SDS011;3465;42.144;24.722;2023-09-30T04:47:38;26.87;;;5.97;;
6852;SDS011;3465;42.144;24.722;2023-09-30T04:50:06;30.07;;;5.97;;
6852;SDS011;3465;42.144;24.722;2023-09-30T04:52:33;22.13;;;5.13;;
6852;SDS011;3465;42.144;24.722;2023-09-30T04:55:00;21.10;;;5.20;;
6852;SDS011;3465;42.144;24.722;2023-09-30T04:57:26;21.97;;;5.00;;
6852;SDS011;3465;42.144;24.722;2023-09-30T04:59:51;16.00;;;5.03;;
6852;SDS011;3465;42.144;24.722;2023-09-30T05:02:17;13.50;;;5.33;;
6852;SDS011;3465;42.144;24.722;2023-09-30T05:04:42;12.05;;;4.53;;
6852;SDS011;3465;42.144;24.722;2023-09-30T05:07:08;20.70;;;5.70;;
6852;SDS011;3465;42.144;24.722;2023-09-30T05:09:34;15.23;;;5.57;;
6852;SDS011;3465;42.144;24.722;2023-09-30T05:11:59;16.38;;;5.55;;
6852;SDS011;3465;42.144;24.722;2023-09-30T05:14:25;18.45;;;5.10;;
6852;SDS011;3465;42.144;24.722;2023-09-30T05:16:50;17.42;;;4.90;;
6852;SDS011;3465;42.144;24.722;2023-09-30T05:19:16;14.45;;;5.07;;
6852;SDS011;3465;42.144;24.722;2023-09-30T05:21:41;21.00;;;5.78;;
6852;SDS011;3465;42.144;24.722;2023-09-30T05:24:07;13.80;;;5.22;;
6852;SDS011;3465;42.144;24.722;2023-09-30T05:26:33;12.05;;;5.35;;
6852;SDS011;3465;42.144;24.722;2023-09-30T05:28:59;20.73;;;5.55;;
6852;SDS011;3465;42.144;24.722;2023-09-30T05:31:24;16.55;;;5.57;;
6852;SDS011;3465;42.144;24.722;2023-09-30T05:33:50;17.67;;;6.43;;
6852;SDS011;3465;42.144;24.722;2023-09-30T05:36:15;13.90;;;5.47;;
6852;SDS011;3465;42.144;24.722;2023-09-30T05:38:41;19.15;;;5.32;;
6852;SDS011;3465;42.144;24.722;2023-09-30T05:41:07;18.67;;;5.50;;
6852;SDS011;3465;42.144;24.722;2023-09-30T05:43:33;26.55;;;5.72;;
6852;SDS011;3465;42.144;24.722;2023-09-30T05:45:58;17.50;;;5.47;;
6852;SDS011;3465;42.144;24.722;2023-09-30T05:48:24;22.02;;;6.20;;
6852;SDS011;3465;42.144;24.722;2023-09-30T05:50:50;25.75;;;6.10;;
6852;SDS011;3465;42.144;24.722;2023-09-30T05:53:15;19.02;;;5.82;;
6852;SDS011;3465;42.144;24.722;2023-09-30T05:55:41;17.90;;;6.00;;
6852;SDS011;3465;42.144;24.722;2023-09-30T05:58:07;20.70;;;5.80;;
6852;SDS011;3465;42.144;24.722;2023-09-30T06:00:34;13.75;;;5.32;;
6852;SDS011;3465;42.144;24.722;2023-09-30T06:03:00;17.58;;;5.07;;
6852;SDS011;3465;42.144;24.722;2023-09-30T06:05:26;21.73;;;5.38;;
6852;SDS011;3465;42.144;24.722;2023-09-30T06:07:55;12.75;;;5.78;;
6852;SDS011;3465;42.144;24.722;2023-09-30T06:10:21;15.93;;;5.53;;
6852;SDS011;3465;42.144;24.722;2023-09-30T06:12:47;29.75;;;7.05;;
6852;SDS011;3465;42.144;24.722;2023-09-30T06:15:14;19.38;;;5.68;;
6852;SDS011;3465;42.144;24.722;2023-09-30T06:17:41;27.95;;;6.35;;
6852;SDS011;3465;42.144;24.722;2023-09-30T06:20:07;14.85;;;5.65;;
6852;SDS011;3465;42.144;24.722;2023-09-30T06:22:34;16.33;;;5.55;;
6852;SDS011;3465;42.144;24.722;2023-09-30T06:25:00;16.02;;;5.32;;
6852;SDS011;3465;42.144;24.722;2023-09-30T06:27:25;17.83;;;5.03;;
6852;SDS011;3465;42.144;24.722;2023-09-30T06:29:51;25.60;;;5.70;;
6852;SDS011;3465;42.144;24.722;2023-09-30T06:32:16;18.10;;;5.53;;
6852;SDS011;3465;42.144;24.722;2023-09-30T06:34:42;10.32;;;4.70;;
6852;SDS011;3465;42.144;24.722;2023-09-30T06:37:07;13.18;;;4.80;;
6852;SDS011;3465;42.144;24.722;2023-09-30T06:39:33;18.10;;;4.25;;
6852;SDS011;3465;42.144;24.722;2023-09-30T06:41:59;17.00;;;4.47;;
6852;SDS011;3465;42.144;24.722;2023-09-30T06:44:24;14.30;;;4.38;;
6852;SDS011;3465;42.144;24.722;2023-09-30T06:46:50;10.90;;;4.32;;
6852;SDS011;3465;42.144;24.722;2023-09-30T06:49:15;15.52;;;4.55;;
6852;SDS011;3465;42.144;24.722;2023-09-30T06:51:41;10.55;;;4.60;;
6852;SDS011;3465;42.144;24.722;2023-09-30T06:54:07;16.58;;;5.30;;
6852;SDS011;3465;42.144;24.722;2023-09-30T06:56:33;10.32;;;5.15;;
6852;SDS011;3465;42.144;24.722;2023-09-30T06:58:58;16.10;;;4.97;;
6852;SDS011;3465;42.144;24.722;2023-09-30T07:01:24;25.10;;;5.47;;
6852;SDS011;3465;42.144;24.722;2023-09-30T07:03:50;15.40;;;4.70;;
6852;SDS011;3465;42.144;24.722;2023-09-30T07:06:25;16.55;;;4.20;;
6852;SDS011;3465;42.144;24.722;2023-09-30T07:08:51;13.57;;;5.00;;
6852;SDS011;3465;42.144;24.722;2023-09-30T07:11:26;26.52;;;5.50;;
6852;SDS011;3465;42.144;24.722;2023-09-30T07:13:53;64.80;;;6.53;;
6852;SDS011;3465;42.144;24.722;2023-09-30T07:16:18;107.88;;;9.82;;
6852;SDS011;3465;42.144;24.722;2023-09-30T07:18:44;19.55;;;5.30;;
6852;SDS011;3465;42.144;24.722;2023-09-30T07:21:09;12.20;;;4.00;;
6852;SDS011;3465;42.144;24.722;2023-09-30T07:23:35;26.13;;;5.50;;
6852;SDS011;3465;42.144;24.722;2023-09-30T07:26:00;9.23;;;4.28;;
6852;SDS011;3465;42.144;24.722;2023-09-30T07:28:26;9.55;;;4.30;;
6852;SDS011;3465;42.144;24.722;2023-09-30T07:30:51;16.30;;;4.28;;
6852;SDS011;3465;42.144;24.722;2023-09-30T07:33:17;12.38;;;4.18;;
6852;SDS011;3465;42.144;24.722;2023-09-30T07:35:43;11.02;;;4.57;;
6852;SDS011;3465;42.144;24.722;2023-09-30T07:38:08;11.60;;;4.70;;
6852;SDS011;3465;42.144;24.722;2023-09-30T07:40:34;14.27;;;4.38;;
6852;SDS011;3465;42.144;24.722;2023-09-30T07:42:59;15.48;;;5.03;;
6852;SDS011;3465;42.144;24.722;2023-09-30T07:45:25;11.57;;;4.97;;
6852;SDS011;3465;42.144;24.722;2023-09-30T07:47:50;13.80;;;4.70;;
6852;SDS011;3465;42.144;24.722;2023-09-30T07:50:16;20.45;;;5.15;;
6852;SDS011;3465;42.144;24.722;2023-09-30T07:52:42;7.88;;;4.82;;
6852;SDS011;3465;42.144;24.722;2023-09-30T07:55:09;15.05;;;4.82;;
6852;SDS011;3465;42.144;24.722;2023-09-30T07:57:34;11.98;;;5.03;;
6852;SDS011;3465;42.144;24.722;2023-09-30T08:00:01;16.13;;;4.53;;
6852;SDS011;3465;42.144;24.722;2023-09-30T08:02:30;17.13;;;4.70;;
6852;SDS011;3465;42.144;24.722;2023-09-30T08:04:58;12.80;;;4.93;;
6852;SDS011;3465;42.144;24.722;2023-09-30T08:07:25;11.75;;;4.72;;
6852;SDS011;3465;42.144;24.722;2023-09-30T08:09:50;19.85;;;4.97;;
6852;SDS011;3465;42.144;24.722;2023-09-30T08:12:16;13.65;;;5.10;;
6852;SDS011;3465;42.144;24.722;2023-09-30T08:14:41;10.98;;;4.60;;
6852;SDS011;3465;42.144;24.722;2023-09-30T08:17:09;18.60;;;4.95;;
6852;SDS011;3465;42.144;24.722;2023-09-30T08:19:35;21.15;;;5.20;;
6852;SDS011;3465;42.144;24.722;2023-09-30T08:22:01;9.25;;;4.18;;
6852;SDS011;3465;42.144;24.722;2023-09-30T08:24:31;11.68;;;4.43;;
6852;SDS011;3465;42.144;24.722;2023-09-30T08:26:56;18.27;;;4.30;;
6852;SDS011;3465;42.144;24.722;2023-09-30T08:29:22;9.38;;;3.88;;
6852;SDS011;3465;42.144;24.722;2023-09-30T08:31:47;13.32;;;4.47;;
6852;SDS011;3465;42.144;24.722;2023-09-30T08:34:15;10.77;;;3.70;;
6852;SDS011;3465;42.144;24.722;2023-09-30T08:36:42;19.65;;;4.13;;
6852;SDS011;3465;42.144;24.722;2023-09-30T08:39:07;12.15;;;3.72;;
6852;SDS011;3465;42.144;24.722;2023-09-30T08:41:35;13.32;;;4.28;;
6852;SDS011;3465;42.144;24.722;2023-09-30T08:44:02;9.55;;;4.00;;
6852;SDS011;3465;42.144;24.722;2023-09-30T08:46:32;13.27;;;3.53;;
6852;SDS011;3465;42.144;24.722;2023-09-30T08:49:00;10.85;;;4.22;;
6852;SDS011;3465;42.144;24.722;2023-09-30T08:51:28;15.30;;;4.28;;
6852;SDS011;3465;42.144;24.722;2023-09-30T08:53:54;16.13;;;4.93;;
6852;SDS011;3465;42.144;24.722;2023-09-30T08:56:23;13.93;;;4.55;;
6852;SDS011;3465;42.144;24.722;2023-09-30T08:58:51;17.42;;;4.65;;
6852;SDS011;3465;42.144;24.722;2023-09-30T09:01:19;9.48;;;3.80;;
6852;SDS011;3465;42.144;24.722;2023-09-30T09:03:45;13.98;;;3.90;;
6852;SDS011;3465;42.144;24.722;2023-09-30T09:06:17;12.60;;;3.53;;
6852;SDS011;3465;42.144;24.722;2023-09-30T09:08:44;14.75;;;3.75;;
6852;SDS011;3465;42.144;24.722;2023-09-30T09:11:09;11.25;;;3.80;;
6852;SDS011;3465;42.144;24.722;2023-09-30T09:13:51;10.82;;;3.88;;
6852;SDS011;3465;42.144;24.722;2023-09-30T09:16:24;11.63;;;3.70;;
6852;SDS011;3465;42.144;24.722;2023-09-30T09:18:50;21.52;;;4.35;;
6852;SDS011;3465;42.144;24.722;2023-09-30T09:21:22;10.82;;;3.75;;
6852;SDS011;3465;42.144;24.722;2023-09-30T09:23:50;8.30;;;3.70;;
6852;SDS011;3465;42.144;24.722;2023-09-30T09:26:26;14.10;;;4.00;;
6852;SDS011;3465;42.144;24.722;2023-09-30T09:28:59;12.02;;;3.42;;
6852;SDS011;3465;42.144;24.722;2023-09-30T09:31:26;13.48;;;4.63;;
6852;SDS011;3465;42.144;24.722;2023-09-30T09:33:53;20.75;;;4.93;;
6852;SDS011;3465;42.144;24.722;2023-09-30T09:36:19;21.42;;;4.70;;
6852;SDS011;3465;42.144;24.722;2023-09-30T09:38:48;8.35;;;3.92;;
6852;SDS011;3465;42.144;24.722;2023-09-30T09:41:18;18.10;;;4.07;;
6852;SDS011;3465;42.144;24.722;2023-09-30T09:43:44;14.43;;;4.03;;
6852;SDS011;3465;42.144;24.722;2023-09-30T09:46:15;12.32;;;3.70;;
6852;SDS011;3465;42.144;24.722;2023-09-30T09:48:42;16.17;;;3.90;;
6852;SDS011;3465;42.144;24.722;2023-09-30T09:51:11;15.88;;;3.70;;
6852;SDS011;3465;42.144;24.722;2023-09-30T09:53:38;10.65;;;3.65;;
6852;SDS011;3465;42.144;24.722;2023-09-30T09:56:09;13.10;;;3.42;;
6852;SDS011;3465;42.144;24.722;2023-09-30T09:58:36;10.88;;;4.20;;
6852;SDS011;3465;42.144;24.722;2023-09-30T10:01:09;8.35;;;3.10;;
6852;SDS011;3465;42.144;24.722;2023-09-30T10:03:36;14.52;;;4.03;;
6852;SDS011;3465;42.144;24.722;2023-09-30T10:06:03;8.70;;;3.55;;
6852;SDS011;3465;42.144;24.722;2023-09-30T10:08:40;11.05;;;3.88;;
6852;SDS011;3465;42.144;24.722;2023-09-30T10:11:12;10.52;;;3.45;;
6852;SDS011;3465;42.144;24.722;2023-09-30T10:13:55;9.43;;;3.78;;
6852;SDS011;3465;42.144;24.722;2023-09-30T10:19:13;17.45;;;4.20;;
6852;SDS011;3465;42.144;24.722;2023-09-30T10:24:56;18.67;;;4.45;;
6852;SDS011;3465;42.144;24.722;2023-09-30T10:40:47;5.85;;;3.42;;
6852;SDS011;3465;42.144;24.722;2023-09-30T10:43:28;13.80;;;3.92;;
6852;SDS011;3465;42.144;24.722;2023-09-30T10:48:51;11.93;;;3.58;;
6852;SDS011;3465;42.144;24.722;2023-09-30T10:51:17;8.75;;;3.53;;
6852;SDS011;3465;42.144;24.722;2023-09-30T10:56:13;9.63;;;3.75;;
6852;SDS011;3465;42.144;24.722;2023-09-30T10:58:46;10.30;;;3.50;;
6852;SDS011;3465;42.144;24.722;2023-09-30T11:01:17;11.73;;;3.95;;
6852;SDS011;3465;42.144;24.722;2023-09-30T11:03:46;13.48;;;3.85;;
6852;SDS011;3465;42.144;24.722;2023-09-30T11:06:14;14.40;;;4.20;;
6852;SDS011;3465;42.144;24.722;2023-09-30T11:08:46;9.38;;;3.83;;
6852;SDS011;3465;42.144;24.722;2023-09-30T11:11:32;9.57;;;3.67;;
6852;SDS011;3465;42.144;24.722;2023-09-30T11:13:57;10.38;;;3.40;;
6852;SDS011;3465;42.144;24.722;2023-09-30T11:16:23;10.98;;;3.58;;
6852;SDS011;3465;42.144;24.722;2023-09-30T11:18:52;9.95;;;3.70;;
6852;SDS011;3465;42.144;24.722;2023-09-30T11:21:18;11.48;;;3.90;;
6852;SDS011;3465;42.144;24.722;2023-09-30T11:23:44;16.13;;;4.20;;
6852;SDS011;3465;42.144;24.722;2023-09-30T11:26:10;11.60;;;3.90;;
6852;SDS011;3465;42.144;24.722;2023-09-30T11:28:42;14.35;;;3.80;;
6852;SDS011;3465;42.144;24.722;2023-09-30T11:31:12;11.68;;;4.25;;
6852;SDS011;3465;42.144;24.722;2023-09-30T11:36:15;11.18;;;3.60;;
6852;SDS011;3465;42.144;24.722;2023-09-30T11:38:44;16.73;;;4.20;;
6852;SDS011;3465;42.144;24.722;2023-09-30T11:41:14;17.63;;;3.60;;
6852;SDS011;3465;42.144;24.722;2023-09-30T11:43:57;6.93;;;4.03;;
6852;SDS011;3465;42.144;24.722;2023-09-30T11:46:27;11.40;;;3.97;;
6852;SDS011;3465;42.144;24.722;2023-09-30T11:49:00;9.18;;;3.55;;
6852;SDS011;3465;42.144;24.722;2023-09-30T11:51:27;11.45;;;3.60;;
6852;SDS011;3465;42.144;24.722;2023-09-30T11:53:54;29.35;;;4.65;;
6852;SDS011;3465;42.144;24.722;2023-09-30T11:56:21;39.42;;;5.43;;
6852;SDS011;3465;42.144;24.722;2023-09-30T11:58:52;13.32;;;4.43;;
6852;SDS011;3465;42.144;24.722;2023-09-30T12:01:18;10.90;;;3.58;;
6852;SDS011;3465;42.144;24.722;2023-09-30T12:03:44;14.15;;;3.85;;
6852;SDS011;3465;42.144;24.722;2023-09-30T12:06:12;10.60;;;3.85;;
6852;SDS011;3465;42.144;24.722;2023-09-30T12:08:39;19.85;;;4.43;;
6852;SDS011;3465;42.144;24.722;2023-09-30T12:11:05;13.75;;;3.80;;
6852;SDS011;3465;42.144;24.722;2023-09-30T12:13:31;15.43;;;5.72;;
6852;SDS011;3465;42.144;24.722;2023-09-30T12:15:56;9.18;;;4.78;;
6852;SDS011;3465;42.144;24.722;2023-09-30T12:18:22;13.07;;;3.97;;
6852;SDS011;3465;42.144;24.722;2023-09-30T12:20:51;14.52;;;4.57;;
6852;SDS011;3465;42.144;24.722;2023-09-30T12:23:19;10.48;;;3.50;;
6852;SDS011;3465;42.144;24.722;2023-09-30T12:25:48;9.32;;;3.83;;
6852;SDS011;3465;42.144;24.722;2023-09-30T12:28:13;14.57;;;4.25;;
6852;SDS011;3465;42.144;24.722;2023-09-30T12:30:40;8.65;;;3.90;;
6852;SDS011;3465;42.144;24.722;2023-09-30T12:33:06;11.73;;;4.18;;
6852;SDS011;3465;42.144;24.722;2023-09-30T12:35:33;10.07;;;3.67;;
6852;SDS011;3465;42.144;24.722;2023-09-30T12:37:58;11.70;;;3.70;;
6852;SDS011;3465;42.144;24.722;2023-09-30T12:40:25;18.95;;;4.15;;
6852;SDS011;3465;42.144;24.722;2023-09-30T12:42:51;14.43;;;3.95;;
6852;SDS011;3465;42.144;24.722;2023-09-30T12:45:16;15.60;;;4.18;;
6852;SDS011;3465;42.144;24.722;2023-09-30T12:47:43;9.35;;;4.32;;
6852;SDS011;3465;42.144;24.722;2023-09-30T12:50:09;13.35;;;4.57;;
6852;SDS011;3465;42.144;24.722;2023-09-30T12:52:35;11.63;;;4.15;;
6852;SDS011;3465;42.144;24.722;2023-09-30T12:55:01;9.82;;;3.97;;
6852;SDS011;3465;42.144;24.722;2023-09-30T12:57:27;15.68;;;4.20;;
6852;SDS011;3465;42.144;24.722;2023-09-30T12:59:53;11.77;;;3.67;;
6852;SDS011;3465;42.144;24.722;2023-09-30T13:02:18;10.90;;;3.83;;
6852;SDS011;3465;42.144;24.722;2023-09-30T13:04:44;8.57;;;3.97;;
6852;SDS011;3465;42.144;24.722;2023-09-30T13:07:10;13.98;;;4.07;;
6852;SDS011;3465;42.144;24.722;2023-09-30T13:09:38;10.07;;;3.88;;
6852;SDS011;3465;42.144;24.722;2023-09-30T13:12:04;8.75;;;4.03;;
6852;SDS011;3465;42.144;24.722;2023-09-30T13:14:31;7.88;;;3.88;;
6852;SDS011;3465;42.144;24.722;2023-09-30T13:16:56;11.27;;;4.25;;
6852;SDS011;3465;42.144;24.722;2023-09-30T13:19:22;8.38;;;4.05;;
6852;SDS011;3465;42.144;24.722;2023-09-30T13:21:48;17.10;;;3.83;;
6852;SDS011;3465;42.144;24.722;2023-09-30T13:24:15;14.68;;;4.05;;
6852;SDS011;3465;42.144;24.722;2023-09-30T13:26:40;14.20;;;4.40;;
6852;SDS011;3465;42.144;24.722;2023-09-30T13:29:06;11.88;;;4.15;;
6852;SDS011;3465;42.144;24.722;2023-09-30T13:31:34;18.98;;;4.78;;
6852;SDS011;3465;42.144;24.722;2023-09-30T13:34:02;11.70;;;4.07;;
6852;SDS011;3465;42.144;24.722;2023-09-30T13:36:28;9.02;;;3.78;;
6852;SDS011;3465;42.144;24.722;2023-09-30T13:38:54;14.93;;;4.32;;
6852;SDS011;3465;42.144;24.722;2023-09-30T13:41:19;10.95;;;3.78;;
6852;SDS011;3465;42.144;24.722;2023-09-30T13:43:45;11.63;;;3.72;;
6852;SDS011;3465;42.144;24.722;2023-09-30T13:46:10;16.75;;;4.47;;
6852;SDS011;3465;42.144;24.722;2023-09-30T13:48:37;17.02;;;4.30;;
6852;SDS011;3465;42.144;24.722;2023-09-30T13:51:06;17.85;;;4.78;;
6852;SDS011;3465;42.144;24.722;2023-09-30T13:53:34;17.75;;;5.07;;
6852;SDS011;3465;42.144;24.722;2023-09-30T13:56:00;11.75;;;4.45;;
6852;SDS011;3465;42.144;24.722;2023-09-30T13:58:25;11.10;;;3.83;;
6852;SDS011;3465;42.144;24.722;2023-09-30T14:00:51;9.35;;;4.15;;
6852;SDS011;3465;42.144;24.722;2023-09-30T14:03:21;17.75;;;4.60;;
6852;SDS011;3465;42.144;24.722;2023-09-30T14:05:46;8.85;;;3.78;;
6852;SDS011;3465;42.144;24.722;2023-09-30T14:08:12;12.57;;;4.30;;
6852;SDS011;3465;42.144;24.722;2023-09-30T14:10:38;15.57;;;3.83;;
6852;SDS011;3465;42.144;24.722;2023-09-30T14:13:03;10.68;;;4.40;;
6852;SDS011;3465;42.144;24.722;2023-09-30T14:15:29;9.45;;;3.75;;
6852;SDS011;3465;42.144;24.722;2023-09-30T14:17:58;7.10;;;3.67;;
6852;SDS011;3465;42.144;24.722;2023-09-30T14:20:24;9.02;;;3.90;;
6852;SDS011;3465;42.144;24.722;2023-09-30T14:22:50;8.38;;;3.85;;
6852;SDS011;3465;42.144;24.722;2023-09-30T14:25:17;11.10;;;3.28;;
6852;SDS011;3465;42.144;24.722;2023-09-30T14:27:43;11.63;;;3.88;;
6852;SDS011;3465;42.144;24.722;2023-09-30T14:30:08;7.65;;;3.80;;
6852;SDS011;3465;42.144;24.722;2023-09-30T14:32:34;17.45;;;3.97;;
6852;SDS011;3465;42.144;24.722;2023-09-30T14:35:00;11.05;;;4.05;;
6852;SDS011;3465;42.144;24.722;2023-09-30T14:37:25;9.70;;;3.83;;
6852;SDS011;3465;42.144;24.722;2023-09-30T14:39:50;8.80;;;3.40;;
6852;SDS011;3465;42.144;24.722;2023-09-30T14:42:16;6.78;;;3.55;;
6852;SDS011;3465;42.144;24.722;2023-09-30T14:44:41;7.60;;;3.33;;
6852;SDS011;3465;42.144;24.722;2023-09-30T14:47:07;9.82;;;3.90;;
6852;SDS011;3465;42.144;24.722;2023-09-30T14:49:33;8.73;;;3.65;;
6852;SDS011;3465;42.144;24.722;2023-09-30T14:51:59;9.63;;;3.30;;
6852;SDS011;3465;42.144;24.722;2023-09-30T14:54:25;9.77;;;3.65;;
6852;SDS011;3465;42.144;24.722;2023-09-30T14:56:51;8.68;;;4.45;;
6852;SDS011;3465;42.144;24.722;2023-09-30T14:59:17;9.05;;;3.28;;
6852;SDS011;3465;42.144;24.722;2023-09-30T15:01:42;10.02;;;4.05;;
6852;SDS011;3465;42.144;24.722;2023-09-30T15:04:08;9.18;;;3.47;;
6852;SDS011;3465;42.144;24.722;2023-09-30T15:06:33;13.10;;;3.80;;
6852;SDS011;3465;42.144;24.722;2023-09-30T15:09:02;8.63;;;3.45;;
6852;SDS011;3465;42.144;24.722;2023-09-30T15:11:29;8.57;;;3.75;;
6852;SDS011;3465;42.144;24.722;2023-09-30T15:13:54;8.65;;;3.53;;
6852;SDS011;3465;42.144;24.722;2023-09-30T15:16:21;6.13;;;3.25;;
6852;SDS011;3465;42.144;24.722;2023-09-30T15:21:32;9.15;;;3.70;;